createdAt,value
2018-02-07T00:00:28.109Z,-3.10
2018-02-07T00:02:55.790Z,-3.00
2018-02-07T00:05:24.204Z,-3.00
2018-02-07T00:07:51.891Z,-3.10
2018-02-07T00:10:19.567Z,-3.10
2018-02-07T00:12:47.215Z,-3.10
2018-02-07T00:15:14.906Z,-3.10
2018-02-07T00:17:42.576Z,-3.00
2018-02-07T00:20:10.992Z,-3.00
2018-02-07T00:22:38.708Z,-3.00
2018-02-07T00:25:07.151Z,-3.10
2018-02-07T00:27:34.781Z,-3.10
2018-02-07T00:30:02.462Z,-3.10
2018-02-07T00:32:30.142Z,-3.20
2018-02-07T00:34:57.804Z,-3.20
2018-02-07T00:37:25.488Z,-3.20
2018-02-07T00:39:53.932Z,-3.20
2018-02-07T00:42:21.589Z,-3.20
2018-02-07T00:44:49.771Z,-3.20
2018-02-07T00:47:17.449Z,-3.30
2018-02-07T00:49:45.093Z,-3.30
2018-02-07T00:52:12.765Z,-3.30
2018-02-07T00:54:40.459Z,-3.30
2018-02-07T00:57:08.865Z,-3.30
2018-02-07T00:59:36.547Z,-3.40
2018-02-07T01:02:04.243Z,-3.40
2018-02-07T01:04:32.672Z,-3.40
2018-02-07T01:07:00.359Z,-3.40
2018-02-07T01:09:28.031Z,-3.40
2018-02-07T01:11:55.675Z,-3.40
2018-02-07T01:14:23.350Z,-3.50
2018-02-07T01:16:51.034Z,-3.50
2018-02-07T01:19:19.455Z,-3.50
2018-02-07T01:21:47.125Z,-3.60
2018-02-07T01:24:14.784Z,-3.60
2018-02-07T01:26:42.423Z,-3.60
2018-02-07T01:29:10.106Z,-3.50
2018-02-07T01:31:37.776Z,-3.50
2018-02-07T01:34:05.429Z,-3.50
2018-02-07T01:36:33.097Z,-3.40
2018-02-07T01:39:00.785Z,-3.40
2018-02-07T01:41:29.187Z,-3.60
2018-02-07T01:43:56.873Z,-3.60
2018-02-07T01:46:24.581Z,-3.60
2018-02-07T01:48:53.008Z,-3.80
2018-02-07T01:51:21.444Z,-3.70
2018-02-07T01:53:49.884Z,-3.70
2018-02-07T01:56:17.516Z,-3.70
2018-02-07T01:58:45.190Z,-3.60
2018-02-07T02:01:13.177Z,-3.60
2018-02-07T02:03:41.119Z,-3.60
2018-02-07T02:06:09.478Z,-3.60
2018-02-07T02:08:37.143Z,-3.60
2018-02-07T02:11:04.798Z,-3.50
2018-02-07T02:13:32.493Z,-3.60
2018-02-07T02:16:00.160Z,-3.60
2018-02-07T02:18:27.804Z,-3.50
2018-02-07T02:20:55.475Z,-3.40
2018-02-07T02:23:23.145Z,-3.50
2018-02-07T02:25:50.788Z,-3.50
2018-02-07T02:28:18.497Z,-3.50
2018-02-07T02:30:46.928Z,-3.60
2018-02-07T02:33:14.588Z,-3.60
2018-02-07T02:35:42.339Z,-3.60
2018-02-07T02:38:10.009Z,-3.70
2018-02-07T02:40:37.657Z,-3.70
2018-02-07T02:43:05.339Z,-3.70
2018-02-07T02:45:33.010Z,-3.80
2018-02-07T02:48:00.639Z,-3.80
2018-02-07T02:50:28.325Z,-3.70
2018-02-07T02:52:56.056Z,-3.70
2018-02-07T02:55:23.704Z,-3.60
2018-02-07T02:57:51.380Z,-3.50
2018-02-07T03:00:19.061Z,-3.50
2018-02-07T03:02:46.722Z,-3.40
2018-02-07T03:05:14.430Z,-3.30
2018-02-07T03:07:42.873Z,-3.10
2018-02-07T03:10:11.239Z,-3.10
2018-02-07T03:12:39.348Z,-3.00
2018-02-07T03:15:07.792Z,-3.00
2018-02-07T03:17:35.441Z,-3.00
2018-02-07T03:20:03.129Z,-3.00
2018-02-07T03:22:30.810Z,-2.90
2018-02-07T03:24:59.241Z,-3.00
2018-02-07T03:27:26.921Z,-3.00
2018-02-07T03:29:54.597Z,-3.00
2018-02-07T03:32:22.254Z,-3.00
2018-02-07T03:34:49.929Z,-2.90
2018-02-07T03:37:18.373Z,-2.80
2018-02-07T03:39:46.020Z,-2.80
2018-02-07T03:42:13.680Z,-2.80
2018-02-07T03:44:41.348Z,-2.80
2018-02-07T03:47:09.056Z,-2.70
2018-02-07T03:49:37.488Z,-2.80
2018-02-07T03:52:05.170Z,-2.80
2018-02-07T03:54:32.826Z,-2.80
2018-02-07T03:57:00.513Z,-2.80
2018-02-07T03:59:28.956Z,-2.80
2018-02-07T04:01:57.347Z,-2.70
2018-02-07T04:04:25.035Z,-2.70
2018-02-07T04:06:53.489Z,-2.70
2018-02-07T04:09:21.119Z,-2.70
2018-02-07T04:11:48.796Z,-2.70
2018-02-07T04:14:16.477Z,-2.60
2018-02-07T04:16:44.132Z,-2.70
2018-02-07T04:19:11.804Z,-2.70
2018-02-07T04:21:40.256Z,-2.60
2018-02-07T04:24:07.918Z,-2.60
2018-02-07T04:26:35.599Z,-2.60
2018-02-07T04:29:03.277Z,-2.50
2018-02-07T04:31:31.559Z,-2.60
2018-02-07T04:33:59.986Z,-2.60
2018-02-07T04:36:28.449Z,-2.60
2018-02-07T04:38:56.097Z,-2.70
2018-02-07T04:41:23.801Z,-2.70
2018-02-07T04:43:51.479Z,-2.60
2018-02-07T04:46:19.906Z,-2.70
2018-02-07T04:48:47.600Z,-2.70
2018-02-07T04:51:15.271Z,-2.70
2018-02-07T04:53:42.932Z,-2.60
2018-02-07T04:56:11.264Z,-2.60
2018-02-07T04:58:38.939Z,-2.60
2018-02-07T05:01:06.573Z,-2.60
2018-02-07T05:03:34.240Z,-2.50
2018-02-07T05:06:01.926Z,-2.50
2018-02-07T05:08:29.590Z,-2.50
2018-02-07T05:10:57.271Z,-2.50
2018-02-07T05:13:24.983Z,-2.50
2018-02-07T05:15:52.632Z,-2.50
2018-02-07T05:18:20.299Z,-2.50
2018-02-07T05:20:47.976Z,-2.40
2018-02-07T05:23:15.621Z,-2.40
2018-02-07T05:25:43.302Z,-2.40
2018-02-07T05:28:10.968Z,-2.30
2018-02-07T05:30:38.614Z,-2.30
2018-02-07T05:33:06.301Z,-2.30
2018-02-07T05:35:33.989Z,-2.40
2018-02-07T05:38:02.421Z,-2.30
2018-02-07T05:40:30.099Z,-2.30
2018-02-07T05:42:57.784Z,-2.30
2018-02-07T05:45:27.503Z,-2.30
2018-02-07T05:47:56.732Z,-2.30
2018-02-07T05:50:25.339Z,-2.30
2018-02-07T05:52:53.558Z,-2.30
2018-02-07T05:55:22.010Z,-2.30
2018-02-07T05:57:49.737Z,-2.30
2018-02-07T06:00:17.414Z,-2.30
2018-02-07T06:02:45.112Z,-2.20
2018-02-07T06:05:13.622Z,-2.30
2018-02-07T06:07:41.268Z,-2.30
2018-02-07T06:10:08.936Z,-2.30
2018-02-07T06:12:36.621Z,-2.30
2018-02-07T06:15:04.370Z,-2.30
2018-02-07T06:17:32.090Z,-2.30
2018-02-07T06:20:00.513Z,-2.30
2018-02-07T06:22:28.208Z,-2.30
2018-02-07T06:24:55.870Z,-2.30
2018-02-07T06:27:23.532Z,-2.20
2018-02-07T06:29:51.205Z,-2.30
2018-02-07T06:32:19.649Z,-2.20
2018-02-07T06:34:47.342Z,-2.20
2018-02-07T06:37:14.989Z,-2.20
2018-02-07T06:39:42.669Z,-2.10
2018-02-07T06:42:11.109Z,-2.10
2018-02-07T06:44:38.757Z,-2.10
2018-02-07T06:47:06.465Z,-2.10
2018-02-07T06:49:34.905Z,-2.20
2018-02-07T06:52:02.581Z,-2.30
2018-02-07T06:54:30.254Z,-2.30
2018-02-07T06:56:57.965Z,-2.20
2018-02-07T06:59:25.613Z,-2.20
2018-02-07T07:01:53.311Z,-2.20
2018-02-07T07:04:21.020Z,-2.20
2018-02-07T07:06:49.481Z,-2.20
2018-02-07T07:09:17.172Z,-2.20
2018-02-07T07:11:44.869Z,-2.10
2018-02-07T07:14:12.549Z,-2.10
2018-02-07T07:16:40.234Z,-2.10
2018-02-07T07:19:08.678Z,-2.10
2018-02-07T07:21:36.499Z,-2.20
2018-02-07T07:24:04.237Z,-2.10
2018-02-07T07:26:32.684Z,-2.20
2018-02-07T07:29:00.353Z,-2.20
2018-02-07T07:31:28.037Z,-2.10
2018-02-07T07:33:56.472Z,-2.20
2018-02-07T07:36:24.112Z,-2.20
2018-02-07T07:38:51.797Z,-2.30
2018-02-07T07:41:19.463Z,-2.30
2018-02-07T07:43:47.114Z,-2.20
2018-02-07T07:46:14.775Z,-2.10
2018-02-07T07:48:42.468Z,-2.10
2018-02-07T07:51:10.106Z,-2.20
2018-02-07T07:53:37.785Z,-2.20
2018-02-07T07:56:05.459Z,-2.20
2018-02-07T07:58:33.864Z,-2.10
2018-02-07T08:01:01.557Z,-2.10
2018-02-07T08:03:29.236Z,-2.00
2018-02-07T08:05:56.873Z,-1.90
2018-02-07T08:08:24.580Z,-1.90
2018-02-07T08:10:53.033Z,-1.90
2018-02-07T08:13:20.713Z,-1.90
2018-02-07T08:15:48.415Z,-2.00
2018-02-07T08:18:16.154Z,-1.90
2018-02-07T08:20:44.566Z,-2.00
2018-02-07T08:23:12.250Z,-2.00
2018-02-07T08:25:40.004Z,-1.90
2018-02-07T08:28:07.653Z,-1.90
2018-02-07T08:30:35.342Z,-1.90
2018-02-07T08:33:03.039Z,-1.90
2018-02-07T08:35:30.748Z,-1.80
2018-02-07T08:37:58.427Z,-1.80
2018-02-07T08:40:26.100Z,-1.80
2018-02-07T08:42:53.756Z,-1.80
2018-02-07T08:45:21.452Z,-1.80
2018-02-07T08:47:49.148Z,-1.70
2018-02-07T08:50:16.810Z,-1.70
2018-02-07T08:52:44.548Z,-1.80
2018-02-07T08:55:12.222Z,-1.70
2018-02-07T08:57:39.876Z,-1.80
2018-02-07T09:00:07.568Z,-1.80
2018-02-07T09:02:35.249Z,-1.70
2018-02-07T09:05:02.904Z,-1.80
2018-02-07T09:07:30.588Z,-1.70
2018-02-07T09:09:59.033Z,-1.70
2018-02-07T09:12:26.673Z,-1.60
2018-02-07T09:14:54.402Z,-1.60
2018-02-07T09:17:22.102Z,-1.70
2018-02-07T09:19:49.720Z,-1.60
2018-02-07T09:22:17.392Z,-1.70
2018-02-07T09:24:45.060Z,-1.60
2018-02-07T09:27:12.713Z,-1.60
2018-02-07T09:29:40.409Z,-1.70
2018-02-07T09:32:08.090Z,-1.60
2018-02-07T09:34:35.741Z,-1.70
2018-02-07T09:37:03.424Z,-1.70
2018-02-07T09:39:31.853Z,-1.60
2018-02-07T09:41:59.502Z,-1.60
2018-02-07T09:44:27.991Z,-1.70
2018-02-07T09:46:55.650Z,-1.70
2018-02-07T09:49:23.286Z,-1.70
2018-02-07T09:51:50.993Z,-1.70
2018-02-07T09:54:18.668Z,-1.70
2018-02-07T09:56:46.388Z,-1.80
2018-02-07T09:59:14.068Z,-1.80
2018-02-07T10:01:41.753Z,-1.80
2018-02-07T10:04:09.396Z,-1.80
2018-02-07T10:06:37.180Z,-1.80
2018-02-07T10:09:05.684Z,-1.70
2018-02-07T10:11:33.385Z,-1.70
2018-02-07T10:14:01.049Z,-1.70
2018-02-07T10:16:28.715Z,-1.70
2018-02-07T10:18:56.378Z,-1.70
2018-02-07T10:21:24.093Z,-1.60
2018-02-07T10:23:51.783Z,-1.60
2018-02-07T10:26:19.424Z,-1.60
2018-02-07T10:28:47.140Z,-1.60
2018-02-07T10:31:14.868Z,-1.60
2018-02-07T10:33:42.509Z,-1.60
2018-02-07T10:36:10.210Z,-1.60
2018-02-07T10:38:37.997Z,-1.60
2018-02-07T10:41:06.530Z,-1.70
2018-02-07T10:43:34.191Z,-1.70
2018-02-07T10:46:01.860Z,-1.70
2018-02-07T10:48:29.520Z,-1.70
2018-02-07T10:50:57.211Z,-1.70
2018-02-07T10:53:24.869Z,-1.70
2018-02-07T10:55:52.524Z,-1.70
2018-02-07T10:58:20.213Z,-1.70
2018-02-07T11:00:48.693Z,-1.70
2018-02-07T11:03:16.375Z,-1.70
2018-02-07T11:05:44.059Z,-1.70
2018-02-07T11:08:11.745Z,-1.60
2018-02-07T11:10:39.468Z,-1.60
2018-02-07T11:13:07.906Z,-1.60
2018-02-07T11:15:36.341Z,-1.60
2018-02-07T11:18:04.032Z,-1.60
2018-02-07T11:20:31.705Z,-1.50
2018-02-07T11:23:00.156Z,-1.60
2018-02-07T11:25:27.829Z,-1.60
2018-02-07T11:27:55.536Z,-1.50
2018-02-07T11:30:23.235Z,-1.40
2018-02-07T11:32:50.898Z,-1.40
2018-02-07T11:35:18.563Z,-1.40
2018-02-07T11:37:46.238Z,-1.40
2018-02-07T11:40:14.706Z,-1.40
2018-02-07T11:42:42.377Z,-1.50
2018-02-07T11:45:10.057Z,-1.50
2018-02-07T11:47:38.464Z,-1.50
2018-02-07T11:50:06.198Z,-1.50
2018-02-07T11:52:33.893Z,-1.50
2018-02-07T11:55:01.592Z,-1.50
2018-02-07T11:57:29.329Z,-1.40
2018-02-07T11:59:57.012Z,-1.40
2018-02-07T12:02:24.676Z,-1.50
2018-02-07T12:04:52.412Z,-1.50
2018-02-07T12:07:20.136Z,-1.40
2018-02-07T12:09:47.779Z,-1.40
2018-02-07T12:12:16.220Z,-1.50
2018-02-07T12:14:43.885Z,-1.50
2018-02-07T12:17:11.548Z,-1.50
2018-02-07T12:19:39.226Z,-1.40
2018-02-07T12:22:07.712Z,-1.50
2018-02-07T12:24:36.126Z,-1.40
2018-02-07T12:27:04.605Z,-1.40
2018-02-07T12:29:32.273Z,-1.40
2018-02-07T12:31:59.934Z,-1.30
2018-02-07T12:34:27.644Z,-1.20
2018-02-07T12:36:56.084Z,-1.30
2018-02-07T12:39:23.736Z,-1.30
2018-02-07T12:41:51.401Z,-1.40
2018-02-07T12:44:19.121Z,-1.40
2018-02-07T12:46:47.554Z,-1.50
2018-02-07T12:49:15.233Z,-1.50
2018-02-07T12:51:42.942Z,-1.50
2018-02-07T12:54:10.584Z,-1.50
2018-02-07T12:56:39.761Z,-1.60
2018-02-07T12:59:08.298Z,-1.60
2018-02-07T13:01:35.950Z,-1.70
2018-02-07T13:04:03.643Z,-1.60
2018-02-07T13:06:31.324Z,-1.70
2018-02-07T13:08:59.072Z,-1.60
2018-02-07T13:11:26.765Z,-1.60
2018-02-07T13:13:55.204Z,-1.50
2018-02-07T13:16:22.877Z,-1.60
2018-02-07T13:18:50.561Z,-1.50
2018-02-07T13:21:19.076Z,-1.40
2018-02-07T13:23:46.752Z,-1.50
2018-02-07T13:26:14.473Z,-1.50
2018-02-07T13:28:42.899Z,-1.60
2018-02-07T13:31:10.549Z,-1.60
2018-02-07T13:33:38.308Z,-1.60
2018-02-07T13:36:06.038Z,-1.60
2018-02-07T13:38:33.704Z,-1.60
2018-02-07T13:41:01.477Z,-1.60
2018-02-07T13:43:29.273Z,-1.50
2018-02-07T13:45:56.927Z,-1.40
2018-02-07T13:48:24.696Z,-1.40
2018-02-07T13:50:52.428Z,-1.30
2018-02-07T13:53:20.097Z,-1.30
2018-02-07T13:55:47.860Z,-1.30
2018-02-07T13:58:15.528Z,-1.30
2018-02-07T14:00:54.859Z,-1.30
2018-02-07T14:03:22.535Z,-1.30
2018-02-07T14:05:50.191Z,-1.30
2018-02-07T14:08:18.734Z,-1.20
2018-02-07T14:10:46.388Z,-1.30
2018-02-07T14:13:14.018Z,-1.40
2018-02-07T14:15:41.690Z,-1.40
2018-02-07T14:18:10.155Z,-1.40
2018-02-07T14:20:37.796Z,-1.40
2018-02-07T14:23:05.480Z,-1.40
2018-02-07T14:25:33.933Z,-1.40
2018-02-07T14:28:01.581Z,-1.40
2018-02-07T14:30:29.254Z,-1.40
2018-02-07T14:32:56.932Z,-1.40
2018-02-07T14:35:24.589Z,-1.40
2018-02-07T14:37:53.061Z,-1.40
2018-02-07T14:40:20.760Z,-1.40
2018-02-07T14:42:48.424Z,-1.40
2018-02-07T14:45:16.097Z,-1.50
2018-02-07T14:47:44.129Z,-1.50
2018-02-07T14:50:12.150Z,-1.40
2018-02-07T14:52:40.307Z,-1.50
2018-02-07T14:55:08.592Z,-1.50
2018-02-07T14:57:36.637Z,-1.40
2018-02-07T15:00:04.448Z,-1.40
2018-02-07T15:02:32.184Z,-1.40
2018-02-07T15:04:59.840Z,-1.40
2018-02-07T15:07:27.528Z,-1.40
2018-02-07T15:09:55.217Z,-1.40
2018-02-07T15:12:22.869Z,-1.40
2018-02-07T15:14:50.971Z,-1.40
2018-02-07T15:17:18.878Z,-1.40
2018-02-07T15:19:46.598Z,-1.50
2018-02-07T15:22:14.268Z,-1.50
2018-02-07T15:24:41.937Z,-1.50
2018-02-07T15:27:09.631Z,-1.40
2018-02-07T15:29:37.333Z,-1.40
2018-02-07T15:32:05.774Z,-1.40
2018-02-07T15:34:33.436Z,-1.40
2018-02-07T15:37:01.104Z,-1.40
2018-02-07T15:39:28.804Z,-1.30
2018-02-07T15:41:56.473Z,-1.30
2018-02-07T15:44:24.145Z,-1.40
2018-02-07T15:46:51.841Z,-1.40
2018-02-07T15:49:19.484Z,-1.50
2018-02-07T15:51:47.263Z,-1.50
2018-02-07T15:54:14.927Z,-1.50
2018-02-07T15:56:42.572Z,-1.50
2018-02-07T15:59:10.303Z,-1.50
2018-02-07T16:01:37.977Z,-1.50
2018-02-07T16:04:05.635Z,-1.50
2018-02-07T16:06:33.298Z,-1.40
2018-02-07T16:09:00.990Z,-1.50
2018-02-07T16:11:28.756Z,-1.50
2018-02-07T16:13:56.459Z,-1.50
2018-02-07T16:16:24.140Z,-1.50
2018-02-07T16:18:51.861Z,-1.50
2018-02-07T16:21:19.566Z,-1.60
2018-02-07T16:23:48.035Z,-1.60
2018-02-07T16:26:15.676Z,-1.60
2018-02-07T16:28:44.158Z,-1.60
2018-02-07T16:31:12.640Z,-1.60
2018-02-07T16:33:40.488Z,-1.60
2018-02-07T16:36:08.971Z,-1.60
2018-02-07T16:38:37.400Z,-1.60
2018-02-07T16:41:05.090Z,-1.50
2018-02-07T16:43:32.760Z,-1.60
2018-02-07T16:46:01.289Z,-1.60
2018-02-07T16:48:28.974Z,-1.60
2018-02-07T16:50:56.640Z,-1.60
2018-02-07T16:53:24.312Z,-1.60
2018-02-07T16:55:52.038Z,-1.70
2018-02-07T16:58:19.702Z,-1.70
2018-02-07T17:00:47.373Z,-1.70
2018-02-07T17:03:15.009Z,-1.70
2018-02-07T17:05:42.700Z,-1.60
2018-02-07T17:08:10.464Z,-1.60
2018-02-07T17:10:38.140Z,-1.60
2018-02-07T17:13:05.844Z,-1.50
2018-02-07T17:15:33.566Z,-1.50
2018-02-07T17:18:01.286Z,-1.60
2018-02-07T17:20:29.436Z,-1.60
2018-02-07T17:22:57.173Z,-1.60
2018-02-07T17:25:25.653Z,-1.60
2018-02-07T17:27:54.100Z,-1.60
2018-02-07T17:30:21.762Z,-1.70
2018-02-07T17:32:50.393Z,-1.70
2018-02-07T17:35:18.157Z,-1.70
2018-02-07T17:37:45.829Z,-1.70
2018-02-07T17:40:13.594Z,-1.60
2018-02-07T17:42:41.272Z,-1.70
2018-02-07T17:45:08.926Z,-1.70
2018-02-07T17:47:36.612Z,-1.60
2018-02-07T17:50:04.290Z,-1.50
2018-02-07T17:52:32.696Z,-1.50
2018-02-07T17:55:00.372Z,-1.50
2018-02-07T17:57:28.064Z,-1.60
2018-02-07T17:59:55.722Z,-1.50
2018-02-07T18:02:23.441Z,-1.50
2018-02-07T18:04:51.890Z,-1.60
2018-02-07T18:07:19.553Z,-1.60
2018-02-07T18:09:47.297Z,-1.50
2018-02-07T18:12:14.956Z,-1.50
2018-02-07T18:14:42.600Z,-1.50
2018-02-07T18:17:10.368Z,-1.50
2018-02-07T18:19:38.056Z,-1.40
2018-02-07T18:22:05.706Z,-1.50
2018-02-07T18:24:33.381Z,-1.50
2018-02-07T18:27:01.897Z,-1.50
2018-02-07T18:29:29.537Z,-1.50
2018-02-07T18:31:58.109Z,-1.50
2018-02-07T18:34:26.619Z,-1.40
2018-02-07T18:36:54.301Z,-1.40
2018-02-07T18:39:25.572Z,-1.40
2018-02-07T18:41:53.652Z,-1.50
2018-02-07T18:45:20.076Z,-1.50
2018-02-07T18:47:48.109Z,-1.60
2018-02-07T18:50:16.062Z,-1.50
2018-02-07T18:52:43.786Z,-1.50
2018-02-07T18:55:13.000Z,-1.50
2018-02-07T18:57:41.477Z,-1.60
2018-02-07T19:00:09.219Z,-1.60
2018-02-07T19:02:36.924Z,-1.60
2018-02-07T19:05:04.748Z,-1.50
2018-02-07T19:07:32.602Z,-1.60
2018-02-07T19:10:00.477Z,-1.60
2018-02-07T19:12:28.330Z,-1.60
2018-02-07T19:14:56.193Z,-1.60
2018-02-07T19:17:24.086Z,-1.60
2018-02-07T19:19:51.767Z,-1.50
2018-02-07T19:22:19.612Z,-1.50
2018-02-07T19:24:47.312Z,-1.40
2018-02-07T19:27:15.213Z,-1.40
2018-02-07T19:29:43.077Z,-1.40
2018-02-07T19:32:11.068Z,-1.30
2018-02-07T19:34:39.571Z,-1.40
2018-02-07T19:37:07.560Z,-1.40
2018-02-07T19:39:35.399Z,-1.50
2018-02-07T19:42:03.196Z,-1.50
2018-02-07T19:44:31.051Z,-1.60
2018-02-07T19:46:58.856Z,-1.50
2018-02-07T19:49:26.876Z,-1.50
2018-02-07T19:51:54.829Z,-1.50
2018-02-07T19:54:22.865Z,-1.40
2018-02-07T19:56:51.347Z,-1.40
2018-02-07T19:59:19.924Z,-1.40
2018-02-07T20:01:47.724Z,-1.40
2018-02-07T20:04:15.644Z,-1.40
2018-02-07T20:06:43.600Z,-1.40
2018-02-07T20:09:11.489Z,-1.40
2018-02-07T20:11:39.583Z,-1.40
2018-02-07T20:14:07.464Z,-1.40
2018-02-07T20:16:35.336Z,-1.40
2018-02-07T20:19:03.208Z,-1.30
2018-02-07T20:21:31.165Z,-1.30
2018-02-07T20:23:59.850Z,-1.40
2018-02-07T20:26:27.637Z,-1.40
2018-02-07T20:28:55.577Z,-1.50
2018-02-07T20:31:23.741Z,-1.40
2018-02-07T20:33:51.576Z,-1.50
2018-02-07T20:36:19.457Z,-1.50
2018-02-07T20:38:48.049Z,-1.50
2018-02-07T20:41:15.819Z,-1.50
2018-02-07T20:43:43.706Z,-1.50
2018-02-07T20:46:11.516Z,-1.40
2018-02-07T20:48:40.155Z,-1.50
2018-02-07T20:51:08.243Z,-1.50
2018-02-07T20:53:36.072Z,-1.40
2018-02-07T20:56:04.090Z,-1.50
2018-02-07T20:58:32.643Z,-1.50
2018-02-07T21:01:00.460Z,-1.50
2018-02-07T21:03:28.303Z,-1.40
2018-02-07T21:05:56.776Z,-1.50
2018-02-07T21:08:24.529Z,-1.50
2018-02-07T21:10:52.334Z,-1.40
2018-02-07T21:13:20.167Z,-1.40
2018-02-07T21:15:48.760Z,-1.50
2018-02-07T21:18:17.296Z,-1.40
2018-02-07T21:20:45.096Z,-1.40
2018-02-07T21:23:13.797Z,-1.50
2018-02-07T21:25:41.631Z,-1.40
2018-02-07T21:28:09.452Z,-1.50
2018-02-07T21:30:37.277Z,-1.50
2018-02-07T21:33:05.764Z,-1.50
2018-02-07T21:35:34.223Z,-1.40
2018-02-07T21:38:01.996Z,-1.40
2018-02-07T21:40:30.514Z,-1.40
2018-02-07T21:42:58.314Z,-1.40
2018-02-07T21:45:27.020Z,-1.40
2018-02-07T21:47:55.687Z,-1.40
2018-02-07T21:50:24.555Z,-1.40
2018-02-07T21:52:52.594Z,-1.40
2018-02-07T21:55:20.548Z,-1.30
2018-02-07T21:57:49.405Z,-1.40
2018-02-07T22:00:17.380Z,-1.40
2018-02-07T22:02:45.224Z,-1.40
2018-02-07T22:05:13.099Z,-1.50
2018-02-07T22:07:40.788Z,-1.50
2018-02-07T22:10:09.469Z,-1.40
2018-02-07T22:12:38.020Z,-1.40
2018-02-07T22:15:06.023Z,-1.50
2018-02-07T22:17:33.769Z,-1.40
2018-02-07T22:20:01.623Z,-1.40
2018-02-07T22:22:29.546Z,-1.40
2018-02-07T22:24:57.400Z,-1.40
2018-02-07T22:27:25.411Z,-1.40
2018-02-07T22:29:53.351Z,-1.40
2018-02-07T22:32:21.366Z,-1.30
2018-02-07T22:34:49.928Z,-1.20
2018-02-07T22:37:17.732Z,-1.20
2018-02-07T22:39:46.161Z,-1.30
2018-02-07T22:42:14.187Z,-1.30
2018-02-07T22:44:42.027Z,-1.30
2018-02-07T22:47:10.513Z,-1.40
2018-02-07T22:49:38.288Z,-1.40
2018-02-07T22:52:06.189Z,-1.40
2018-02-07T22:54:34.112Z,-1.40
2018-02-07T22:57:03.751Z,-1.40
2018-02-07T22:59:32.421Z,-1.40
2018-02-07T23:02:00.597Z,-1.40
2018-02-07T23:04:28.555Z,-1.50
2018-02-07T23:06:56.560Z,-1.40
2018-02-07T23:09:24.666Z,-1.40
2018-02-07T23:11:53.618Z,-1.50
2018-02-07T23:14:21.496Z,-1.60
2018-02-07T23:16:49.429Z,-1.60
2018-02-07T23:19:17.711Z,-1.60
2018-02-07T23:21:45.664Z,-1.60
2018-02-07T23:24:13.741Z,-1.60
2018-02-07T23:26:41.436Z,-1.60
2018-02-07T23:29:09.214Z,-1.50
2018-02-07T23:31:36.862Z,-1.40
2018-02-07T23:34:04.662Z,-1.40
2018-02-07T23:36:33.130Z,-1.40
2018-02-07T23:39:01.591Z,-1.50
2018-02-07T23:41:29.461Z,-1.50
2018-02-07T23:43:57.164Z,-1.50
2018-02-07T23:46:24.892Z,-1.50
2018-02-07T23:48:53.352Z,-1.50
2018-02-07T23:51:21.084Z,-1.50
2018-02-07T23:53:48.725Z,-1.50
2018-02-07T23:56:16.440Z,-1.50
2018-02-07T23:58:44.113Z,-1.50
